Terminal Aerodrome Forecast
Issued by NWS Blacksburg, VA

Current Version | Previous Version | Graphics & Text | Print | Product List | Glossary On
Versions: 1 2 3 4 5 6 7 8 9 10 11 12 13 14 15 16 17 18 19 20 21 22 23 24 25 26 27 28 29 30 31 32 33 34 35 36 37 38 39 40 41 42 43 44 45 46 47 48 49 50
000
FTUS41 KRNK 060144 AAA
TAFBLF
TAF AMD
KBLF 060144Z 0602/0624 VRB03KT 5SM -SHRA SCT006 OVC015
     FM060500 14004KT 3SM -SHRA BR OVC020
     FM061100 27003KT 1SM BR OVC004
     FM061500 00000KT 4SM BR OVC012
     FM061900 27007KT P6SM VCSH OVC050=

USA.gov is the U.S. government's official web portal to all federal, state and local government web resources and services.